B21 EFTU-EFTP
Flight info
| Callsign | B21 |
|---|---|
| Flight time | 0h 45m |
| Altitude | 20000 |
| Route | LIVLU MAR PRI PIR |
| Aircraft | HAWK/M-SDGIRY/C |
Departure
| Time | 2026-05-06 07:08 |
|---|---|
| Airport | Turku Airport (EFTU) |
Arrival
| Time | 2026-05-06 07:53 |
|---|---|
| Airport | Tampere-Pirkkala Airport (EFTP) |
| Time | Latitude | Longitude | Altitude | Speed | Heading |
|---|---|---|---|---|---|
| 2026-05-06 07:03 | 60.51216 | 22.28514 | 151 ft | 0 kts | 283° |
| 2026-05-06 07:06 | 60.51224 | 22.28480 | 150 ft | 6 kts | 321° |
| 2026-05-06 07:06 | 60.51266 | 22.28508 | 147 ft | 10 kts | 26° |
| 2026-05-06 07:07 | 60.51367 | 22.28561 | 141 ft | 18 kts | 351° |
| 2026-05-06 07:07 | 60.51470 | 22.28521 | 144 ft | 13 kts | 339° |
| 2026-05-06 07:07 | 60.51502 | 22.28300 | 145 ft | 43 kts | 270° |
| 2026-05-06 07:07 | 60.51446 | 22.26955 | 163 ft | 148 kts | 266° |
| 2026-05-06 07:08 | 60.51337 | 22.24415 | 1000 ft | 207 kts | 266° |
| 2026-05-06 07:08 | 60.51199 | 22.21155 | 2601 ft | 254 kts | 266° |
| 2026-05-06 07:08 | 60.50847 | 22.17480 | 4757 ft | 257 kts | 249° |
| 2026-05-06 07:08 | 60.50135 | 22.14161 | 7531 ft | 258 kts | 248° |
| 2026-05-06 07:09 | 60.49364 | 22.10739 | 9615 ft | 273 kts | 246° |
| 2026-05-06 07:09 | 60.48520 | 22.07072 | 11138 ft | 298 kts | 247° |
| 2026-05-06 07:09 | 60.47603 | 22.03111 | 12635 ft | 323 kts | 248° |
| 2026-05-06 07:09 | 60.46639 | 21.98868 | 14033 ft | 346 kts | 249° |
| 2026-05-06 07:10 | 60.45629 | 21.94367 | 15703 ft | 353 kts | 249° |
| 2026-05-06 07:10 | 60.44641 | 21.89880 | 18040 ft | 341 kts | 249° |
| 2026-05-06 07:10 | 60.43672 | 21.85453 | 19646 ft | 349 kts | 250° |
| 2026-05-06 07:10 | 60.42709 | 21.81011 | 20041 ft | 342 kts | 249° |
| 2026-05-06 07:11 | 60.41737 | 21.76589 | 19967 ft | 346 kts | 248° |
| 2026-05-06 07:11 | 60.40731 | 21.72153 | 19898 ft | 347 kts | 249° |
| 2026-05-06 07:11 | 60.39738 | 21.67684 | 19967 ft | 350 kts | 249° |
| 2026-05-06 07:11 | 60.38736 | 21.63115 | 19970 ft | 360 kts | 249° |
| 2026-05-06 07:12 | 60.37714 | 21.58419 | 19996 ft | 368 kts | 249° |
| 2026-05-06 07:12 | 60.36682 | 21.53653 | 20069 ft | 373 kts | 249° |
| 2026-05-06 07:12 | 60.35652 | 21.48788 | 20037 ft | 379 kts | 252° |
| 2026-05-06 07:12 | 60.34918 | 21.43662 | 20079 ft | 381 kts | 256° |
| 2026-05-06 07:13 | 60.34208 | 21.38487 | 20200 ft | 383 kts | 256° |
| 2026-05-06 07:13 | 60.33502 | 21.33319 | 20365 ft | 383 kts | 256° |
| 2026-05-06 07:13 | 60.32828 | 21.28089 | 20389 ft | 387 kts | 257° |
| 2026-05-06 07:13 | 60.32132 | 21.22799 | 20397 ft | 391 kts | 256° |
| 2026-05-06 07:14 | 60.31406 | 21.17523 | 20258 ft | 398 kts | 256° |
| 2026-05-06 07:14 | 60.30680 | 21.12112 | 20266 ft | 400 kts | 257° |
| 2026-05-06 07:14 | 60.29987 | 21.06692 | 20315 ft | 400 kts | 257° |
| 2026-05-06 07:14 | 60.29531 | 21.03063 | 20213 ft | 403 kts | 257° |
| 2026-05-06 07:15 | 60.28823 | 20.97581 | 20223 ft | 403 kts | 256° |
| 2026-05-06 07:15 | 60.28091 | 20.92122 | 20288 ft | 402 kts | 256° |
| 2026-05-06 07:15 | 60.27291 | 20.86701 | 20249 ft | 403 kts | 254° |
| 2026-05-06 07:15 | 60.26484 | 20.81272 | 20229 ft | 403 kts | 256° |
| 2026-05-06 07:16 | 60.25745 | 20.75804 | 20241 ft | 404 kts | 256° |
| 2026-05-06 07:16 | 60.24995 | 20.70408 | 20232 ft | 405 kts | 256° |
| 2026-05-06 07:16 | 60.24252 | 20.64937 | 20129 ft | 407 kts | 256° |
| 2026-05-06 07:16 | 60.23518 | 20.59395 | 20000 ft | 409 kts | 256° |
| 2026-05-06 07:17 | 60.22797 | 20.53849 | 20002 ft | 408 kts | 257° |
| 2026-05-06 07:17 | 60.21803 | 20.46543 | 20088 ft | 405 kts | 256° |
| 2026-05-06 07:17 | 60.21294 | 20.42947 | 20146 ft | 405 kts | 255° |
| 2026-05-06 07:17 | 60.20482 | 20.37515 | 20161 ft | 405 kts | 255° |
| 2026-05-06 07:18 | 60.19659 | 20.32071 | 20153 ft | 406 kts | 255° |
| 2026-05-06 07:18 | 60.18894 | 20.26623 | 20166 ft | 406 kts | 256° |
| 2026-05-06 07:18 | 60.18173 | 20.21209 | 20158 ft | 406 kts | 256° |
| 2026-05-06 07:18 | 60.17445 | 20.15711 | 20248 ft | 404 kts | 256° |
| 2026-05-06 07:19 | 60.16729 | 20.10265 | 20424 ft | 401 kts | 256° |
| 2026-05-06 07:19 | 60.16017 | 20.04833 | 20387 ft | 404 kts | 256° |
| 2026-05-06 07:19 | 60.15239 | 19.99342 | 20144 ft | 410 kts | 255° |
| 2026-05-06 07:19 | 60.14455 | 19.93848 | 20115 ft | 410 kts | 256° |
| 2026-05-06 07:20 | 60.13681 | 19.88410 | 20096 ft | 410 kts | 255° |
| 2026-05-06 07:20 | 60.12831 | 19.82953 | 19976 ft | 413 kts | 246° |
| 2026-05-06 07:20 | 60.10434 | 19.79785 | 20044 ft | 452 kts | 192° |
| 2026-05-06 07:20 | 60.07606 | 19.82760 | 20166 ft | 511 kts | 124° |
| 2026-05-06 07:21 | 60.07778 | 19.89485 | 20084 ft | 503 kts | 46° |
| 2026-05-06 07:21 | 60.10706 | 19.92103 | 19971 ft | 462 kts | 5° |
| 2026-05-06 07:21 | 60.13873 | 19.93544 | 19948 ft | 468 kts | 4° |
| 2026-05-06 07:21 | 60.16977 | 19.95774 | 20170 ft | 483 kts | 22° |
| 2026-05-06 07:22 | 60.19709 | 19.99569 | 21138 ft | 471 kts | 27° |
| 2026-05-06 07:22 | 60.22486 | 20.03384 | 20251 ft | 498 kts | 26° |
| 2026-05-06 07:22 | 60.25433 | 20.07162 | 20147 ft | 504 kts | 25° |
| 2026-05-06 07:22 | 60.28367 | 20.11173 | 20101 ft | 510 kts | 28° |
| 2026-05-06 07:23 | 60.31272 | 20.15286 | 20142 ft | 511 kts | 28° |
| 2026-05-06 07:23 | 60.34142 | 20.19382 | 20220 ft | 511 kts | 29° |
| 2026-05-06 07:23 | 60.37032 | 20.23588 | 20262 ft | 512 kts | 29° |
| 2026-05-06 07:23 | 60.39867 | 20.27778 | 20364 ft | 513 kts | 29° |
| 2026-05-06 07:24 | 60.42816 | 20.32101 | 20272 ft | 517 kts | 29° |
| 2026-05-06 07:24 | 60.45736 | 20.36346 | 20372 ft | 514 kts | 27° |
| 2026-05-06 07:24 | 60.48704 | 20.40382 | 20364 ft | 515 kts | 26° |
| 2026-05-06 07:24 | 60.51680 | 20.44471 | 20358 ft | 516 kts | 27° |
| 2026-05-06 07:25 | 60.54663 | 20.48545 | 20384 ft | 515 kts | 26° |
| 2026-05-06 07:25 | 60.57651 | 20.52612 | 20229 ft | 520 kts | 27° |
| 2026-05-06 07:25 | 60.60641 | 20.56806 | 20164 ft | 522 kts | 28° |
| 2026-05-06 07:25 | 60.63614 | 20.61093 | 19936 ft | 526 kts | 28° |
| 2026-05-06 07:26 | 60.66534 | 20.65367 | 20162 ft | 519 kts | 29° |
| 2026-05-06 07:26 | 60.69400 | 20.69737 | 20530 ft | 512 kts | 29° |
| 2026-05-06 07:26 | 60.72377 | 20.73782 | 20384 ft | 515 kts | 25° |
| 2026-05-06 07:26 | 60.75389 | 20.77775 | 20315 ft | 517 kts | 26° |
| 2026-05-06 07:27 | 60.78414 | 20.81830 | 20271 ft | 519 kts | 26° |
| 2026-05-06 07:27 | 60.81440 | 20.85893 | 20252 ft | 519 kts | 26° |
| 2026-05-06 07:27 | 60.84423 | 20.89916 | 20175 ft | 521 kts | 26° |
| 2026-05-06 07:27 | 60.87426 | 20.94118 | 20001 ft | 524 kts | 28° |
| 2026-05-06 07:28 | 60.90452 | 20.98233 | 20077 ft | 520 kts | 26° |
| 2026-05-06 07:28 | 60.93468 | 21.02344 | 20065 ft | 519 kts | 27° |
| 2026-05-06 07:28 | 60.99453 | 21.10661 | 20056 ft | 519 kts | 27° |
| 2026-05-06 07:29 | 61.02433 | 21.14892 | 20051 ft | 519 kts | 28° |
| 2026-05-06 07:29 | 61.05392 | 21.19186 | 20019 ft | 520 kts | 28° |
| 2026-05-06 07:29 | 61.08329 | 21.23559 | 19960 ft | 522 kts | 29° |
| 2026-05-06 07:29 | 61.11239 | 21.28078 | 19893 ft | 522 kts | 30° |
| 2026-05-06 07:30 | 61.14187 | 21.32407 | 19976 ft | 517 kts | 27° |
| 2026-05-06 07:30 | 61.17118 | 21.36585 | 19963 ft | 518 kts | 28° |
| 2026-05-06 07:30 | 61.20080 | 21.40863 | 19973 ft | 517 kts | 27° |
| 2026-05-06 07:30 | 61.23058 | 21.45050 | 20032 ft | 516 kts | 27° |
| 2026-05-06 07:31 | 61.26024 | 21.49274 | 20086 ft | 516 kts | 28° |
| 2026-05-06 07:31 | 61.28962 | 21.53574 | 20096 ft | 517 kts | 29° |
| 2026-05-06 07:31 | 61.31880 | 21.57974 | 20056 ft | 518 kts | 28° |
| 2026-05-06 07:31 | 61.34829 | 21.62312 | 20042 ft | 518 kts | 28° |
| 2026-05-06 07:32 | 61.37728 | 21.66611 | 20068 ft | 518 kts | 29° |
| 2026-05-06 07:32 | 61.40635 | 21.71054 | 20165 ft | 517 kts | 29° |
| 2026-05-06 07:32 | 61.43546 | 21.75448 | 20260 ft | 516 kts | 30° |
| 2026-05-06 07:32 | 61.46060 | 21.80833 | 20460 ft | 524 kts | 46° |
| 2026-05-06 07:33 | 61.47416 | 21.87881 | 20497 ft | 532 kts | 91° |
| 2026-05-06 07:33 | 61.46948 | 21.95538 | 20655 ft | 534 kts | 99° |
| 2026-05-06 07:33 | 61.46312 | 22.03292 | 20222 ft | 547 kts | 101° |
| 2026-05-06 07:33 | 61.45736 | 22.11178 | 20125 ft | 548 kts | 95° |
| 2026-05-06 07:34 | 61.45491 | 22.19129 | 20096 ft | 548 kts | 94° |
| 2026-05-06 07:34 | 61.45244 | 22.27083 | 20178 ft | 546 kts | 94° |
| 2026-05-06 07:34 | 61.44997 | 22.34898 | 20127 ft | 547 kts | 94° |
| 2026-05-06 07:34 | 61.44753 | 22.42832 | 20133 ft | 548 kts | 94° |
| 2026-05-06 07:35 | 61.44532 | 22.50819 | 20165 ft | 548 kts | 93° |
| 2026-05-06 07:35 | 61.44301 | 22.58756 | 19858 ft | 543 kts | 94° |
| 2026-05-06 07:35 | 61.44039 | 22.66444 | 18835 ft | 518 kts | 94° |
| 2026-05-06 07:35 | 61.43749 | 22.73793 | 17570 ft | 496 kts | 95° |
| 2026-05-06 07:36 | 61.43506 | 22.80827 | 16174 ft | 477 kts | 93° |
| 2026-05-06 07:36 | 61.43295 | 22.87619 | 14761 ft | 461 kts | 93° |
| 2026-05-06 07:36 | 61.43064 | 22.94136 | 13381 ft | 445 kts | 94° |
| 2026-05-06 07:36 | 61.42818 | 23.00481 | 12342 ft | 434 kts | 94° |
| 2026-05-06 07:37 | 61.42556 | 23.06753 | 11252 ft | 431 kts | 94° |
| 2026-05-06 07:37 | 61.42683 | 23.12712 | 10373 ft | 390 kts | 64° |
| 2026-05-06 07:37 | 61.44424 | 23.16264 | 9924 ft | 328 kts | 17° |
| 2026-05-06 07:37 | 61.46484 | 23.17566 | 9421 ft | 295 kts | 11° |
| 2026-05-06 07:38 | 61.48395 | 23.18659 | 8664 ft | 279 kts | 10° |
| 2026-05-06 07:38 | 61.50207 | 23.19748 | 8180 ft | 262 kts | 11° |
| 2026-05-06 07:38 | 61.51907 | 23.20739 | 7510 ft | 255 kts | 8° |
| 2026-05-06 07:38 | 61.53656 | 23.21654 | 6868 ft | 261 kts | 11° |
| 2026-05-06 07:39 | 61.55226 | 23.23451 | 6566 ft | 262 kts | 41° |
| 2026-05-06 07:39 | 61.56335 | 23.26429 | 6359 ft | 258 kts | 50° |
| 2026-05-06 07:39 | 61.57287 | 23.29678 | 6168 ft | 263 kts | 57° |
| 2026-05-06 07:39 | 61.58156 | 23.33060 | 5999 ft | 264 kts | 57° |
| 2026-05-06 07:40 | 61.58999 | 23.36507 | 5833 ft | 265 kts | 59° |
| 2026-05-06 07:40 | 61.59822 | 23.39972 | 5676 ft | 265 kts | 59° |
| 2026-05-06 07:40 | 61.60643 | 23.43426 | 5505 ft | 264 kts | 59° |
| 2026-05-06 07:40 | 61.61410 | 23.46946 | 5349 ft | 264 kts | 63° |
| 2026-05-06 07:41 | 61.62122 | 23.50514 | 5199 ft | 264 kts | 65° |
| 2026-05-06 07:41 | 61.62545 | 23.54230 | 5032 ft | 267 kts | 85° |
| 2026-05-06 07:41 | 61.62321 | 23.58084 | 4928 ft | 266 kts | 100° |
| 2026-05-06 07:41 | 61.61887 | 23.61882 | 4713 ft | 269 kts | 104° |
| 2026-05-06 07:42 | 61.61363 | 23.65663 | 4535 ft | 269 kts | 106° |
| 2026-05-06 07:42 | 61.60782 | 23.69382 | 4478 ft | 266 kts | 109° |
| 2026-05-06 07:42 | 61.60147 | 23.72990 | 4428 ft | 261 kts | 111° |
| 2026-05-06 07:42 | 61.59417 | 23.76484 | 4302 ft | 260 kts | 114° |
| 2026-05-06 07:43 | 61.58666 | 23.79947 | 4144 ft | 261 kts | 115° |
| 2026-05-06 07:43 | 61.57868 | 23.83321 | 4147 ft | 256 kts | 118° |
| 2026-05-06 07:43 | 61.56976 | 23.86540 | 4075 ft | 254 kts | 123° |
| 2026-05-06 07:43 | 61.55940 | 23.89579 | 3889 ft | 258 kts | 129° |
| 2026-05-06 07:44 | 61.54773 | 23.92388 | 3804 ft | 257 kts | 136° |
| 2026-05-06 07:44 | 61.53428 | 23.94738 | 3834 ft | 249 kts | 150° |
| 2026-05-06 07:44 | 61.51866 | 23.96208 | 3775 ft | 240 kts | 171° |
| 2026-05-06 07:44 | 61.50299 | 23.95965 | 3831 ft | 220 kts | 208° |
| 2026-05-06 07:45 | 61.49213 | 23.93895 | 3773 ft | 212 kts | 237° |
| 2026-05-06 07:45 | 61.48479 | 23.91161 | 3431 ft | 224 kts | 244° |
| 2026-05-06 07:45 | 61.47750 | 23.88177 | 3079 ft | 234 kts | 245° |
| 2026-05-06 07:45 | 61.47039 | 23.85130 | 2826 ft | 231 kts | 245° |
| 2026-05-06 07:46 | 61.46333 | 23.82186 | 2488 ft | 221 kts | 240° |
| 2026-05-06 07:46 | 61.45125 | 23.80617 | 2589 ft | 215 kts | 188° |
| 2026-05-06 07:46 | 61.43707 | 23.81711 | 2647 ft | 227 kts | 140° |
| 2026-05-06 07:46 | 61.43028 | 23.84648 | 2673 ft | 234 kts | 91° |
| 2026-05-06 07:47 | 61.43464 | 23.87878 | 2664 ft | 236 kts | 65° |
| 2026-05-06 07:47 | 61.44160 | 23.91090 | 2561 ft | 250 kts | 62° |
| 2026-05-06 07:47 | 61.44895 | 23.94433 | 2572 ft | 256 kts | 62° |
| 2026-05-06 07:47 | 61.45648 | 23.97824 | 2607 ft | 256 kts | 62° |
| 2026-05-06 07:48 | 61.46586 | 24.00896 | 2637 ft | 248 kts | 33° |
| 2026-05-06 07:48 | 61.48140 | 24.01555 | 2610 ft | 229 kts | 336° |
| 2026-05-06 07:48 | 61.49202 | 23.99392 | 2731 ft | 216 kts | 285° |
| 2026-05-06 07:48 | 61.49085 | 23.96272 | 2661 ft | 220 kts | 257° |
| 2026-05-06 07:49 | 61.48742 | 23.93139 | 2759 ft | 220 kts | 256° |
| 2026-05-06 07:49 | 61.48162 | 23.90171 | 2822 ft | 224 kts | 246° |
| 2026-05-06 07:49 | 61.47483 | 23.87184 | 2707 ft | 232 kts | 246° |
| 2026-05-06 07:49 | 61.46790 | 23.84182 | 2510 ft | 216 kts | 245° |
| 2026-05-06 07:50 | 61.46177 | 23.81537 | 2271 ft | 197 kts | 245° |
| 2026-05-06 07:50 | 61.45606 | 23.79060 | 1988 ft | 181 kts | 246° |
| 2026-05-06 07:50 | 61.45097 | 23.76824 | 1826 ft | 160 kts | 248° |
| 2026-05-06 07:50 | 61.44657 | 23.74934 | 1662 ft | 131 kts | 246° |
| 2026-05-06 07:51 | 61.44268 | 23.73244 | 1463 ft | 130 kts | 248° |
| 2026-05-06 07:51 | 61.43911 | 23.71458 | 1371 ft | 138 kts | 247° |
| 2026-05-06 07:51 | 61.43475 | 23.69558 | 1253 ft | 149 kts | 245° |
| 2026-05-06 07:51 | 61.43034 | 23.67653 | 1030 ft | 142 kts | 247° |
| 2026-05-06 07:52 | 61.42636 | 23.65885 | 813 ft | 130 kts | 246° |
| 2026-05-06 07:52 | 61.42251 | 23.64144 | 557 ft | 135 kts | 244° |
| 2026-05-06 07:52 | 61.41877 | 23.62468 | 382 ft | 120 kts | 245° |
| 2026-05-06 07:52 | 61.41579 | 23.61147 | 383 ft | 82 kts | 244° |
| 2026-05-06 07:53 | 61.41374 | 23.60254 | 393 ft | 56 kts | 244° |
| 2026-05-06 07:53 | 61.41225 | 23.59604 | 387 ft | 44 kts | 246° |
| 2026-05-06 07:53 | 61.41121 | 23.59218 | 391 ft | 12 kts | 197° |
| 2026-05-06 07:53 | 61.41043 | 23.59233 | 391 ft | 14 kts | 155° |
| 2026-05-06 07:54 | 61.40976 | 23.59373 | 388 ft | 14 kts | 97° |
| 2026-05-06 07:54 | 61.40976 | 23.59543 | 390 ft | 10 kts | 89° |
| 2026-05-06 07:54 | 61.40972 | 23.59679 | 388 ft | 10 kts | 99° |
| 2026-05-06 07:54 | 61.40958 | 23.59822 | 386 ft | 10 kts | 103° |
| 2026-05-06 07:55 | 61.40935 | 23.59950 | 385 ft | 10 kts | 112° |
| 2026-05-06 07:55 | 61.40874 | 23.60141 | 379 ft | 20 kts | 130° |
| 2026-05-06 07:55 | 61.40769 | 23.60350 | 374 ft | 20 kts | 137° |
| 2026-05-06 07:55 | 61.40704 | 23.60601 | 369 ft | 20 kts | 96° |
| 2026-05-06 07:56 | 61.40719 | 23.60856 | 370 ft | 17 kts | 78° |
| 2026-05-06 07:56 | 61.40722 | 23.61068 | 373 ft | 12 kts | 96° |
| 2026-05-06 07:56 | 61.40713 | 23.61246 | 369 ft | 13 kts | 90° |
| 2026-05-06 07:56 | 61.40731 | 23.61415 | 370 ft | 10 kts | 63° |
| 2026-05-06 07:57 | 61.40764 | 23.61498 | 371 ft | 6 kts | 40° |
| 2026-05-06 07:57 | 61.40795 | 23.61553 | 372 ft | 8 kts | 40° |
| 2026-05-06 07:57 | 61.40835 | 23.61652 | 374 ft | 10 kts | 68° |
| 2026-05-06 07:57 | 61.40848 | 23.61734 | 376 ft | 4 kts | 70° |
| 2026-05-06 07:58 | 61.40864 | 23.61820 | 377 ft | 12 kts | 69° |
| 2026-05-06 07:58 | 61.40909 | 23.61980 | 380 ft | 11 kts | 38° |
| 2026-05-06 07:58 | 61.40959 | 23.62052 | 384 ft | 10 kts | 40° |
| 2026-05-06 07:58 | 61.41041 | 23.62177 | 391 ft | 19 kts | 25° |
| 2026-05-06 07:59 | 61.41155 | 23.62277 | 389 ft | 18 kts | 23° |
| 2026-05-06 07:59 | 61.41223 | 23.62375 | 383 ft | 9 kts | 98° |
| 2026-05-06 07:59 | 61.41221 | 23.62430 | 382 ft | 2 kts | 20° |
| 2026-05-06 07:59 | 61.41235 | 23.62451 | 382 ft | 3 kts | 93° |
| 2026-05-06 08:00 | 61.41231 | 23.62476 | 382 ft | 0 kts | 109° |